Time;durP1;ratioP1;P1;durP2;ratioP2;P2;SDS_P1;SDS_P2;PMS_P1;PMS_P2;Temp;Humidity;BMP_temperature;BMP_pressure;BME280_temperature;BME280_humidity;BME280_pressure;Samples;Min_cycle;Max_cycle;Signal;HPM_P1;HPM_P2
2022/06/24 00:00:06;;;;;;;5.95;1.10;;;19.90;99.90;;;;;;5012206;28;20179;-62
2022/06/24 00:02:32;;;;;;;3.33;1.30;;;19.90;99.90;;;;;;5011982;28;20187;-61
2022/06/24 00:05:07;;;;;;;2.90;1.23;;;19.90;99.90;;;;;;5011993;28;20202;-61
2022/06/24 00:07:47;;;;;;;2.13;1.10;;;19.90;99.90;;;;;;5011895;28;20174;-61
2022/06/24 00:10:15;;;;;;;2.65;1.00;;;19.90;99.90;;;;;;5012062;28;20179;-62
2022/06/24 00:12:43;;;;;;;4.07;1.45;;;19.90;99.90;;;;;;5013183;28;20187;-62
2022/06/24 00:15:09;;;;;;;4.65;1.40;;;19.90;99.90;;;;;;5031705;28;20171;-62
2022/06/24 00:17:35;;;;;;;2.22;1.20;;;19.90;99.90;;;;;;5031085;28;20771;-62
2022/06/24 00:20:09;;;;;;;5.97;1.17;;;19.90;99.90;;;;;;5031135;28;20205;-61
2022/06/24 00:22:50;;;;;;;4.43;1.23;;;19.80;99.90;;;;;;5033475;28;20181;-62
2022/06/24 00:25:24;;;;;;;3.08;1.17;;;19.80;99.90;;;;;;5035158;28;20188;-61
2022/06/24 00:28:05;;;;;;;3.75;1.27;;;19.70;99.90;;;;;;5026726;28;20190;-61
2022/06/24 00:30:37;;;;;;;5.93;1.58;;;19.70;99.90;;;;;;5035095;28;20182;-61
2022/06/24 00:33:16;;;;;;;2.75;1.20;;;19.70;99.90;;;;;;5034894;28;20214;-59
2022/06/24 00:36:01;;;;;;;2.00;1.10;;;19.70;99.90;;;;;;5032920;28;20193;-59
2022/06/24 00:38:37;;;;;;;3.83;1.35;;;19.70;99.90;;;;;;4997544;28;20768;-59
2022/06/24 00:41:08;;;;;;;5.38;1.30;;;19.70;99.90;;;;;;5027531;28;20174;-59
2022/06/24 00:43:34;;;;;;;5.10;1.33;;;19.70;99.90;;;;;;5035218;28;20233;-59
2022/06/24 00:46:04;;;;;;;1.92;1.10;;;19.70;99.90;;;;;;5035137;28;20170;-59
2022/06/24 00:48:31;;;;;;;1.67;1.02;;;19.70;99.90;;;;;;5034959;28;20178;-59
2022/06/24 00:50:57;;;;;;;5.40;1.50;;;19.70;99.90;;;;;;5022578;28;20198;-59
2022/06/24 00:53:23;;;;;;;3.28;1.23;;;19.70;99.90;;;;;;5033991;28;20285;-59
2022/06/24 00:55:49;;;;;;;4.32;1.05;;;19.70;99.90;;;;;;5034580;28;20277;-59
2022/06/24 00:58:17;;;;;;;5.22;1.38;;;19.70;99.90;;;;;;5034467;28;20315;-59
2022/06/24 01:00:46;;;;;;;4.43;1.10;;;19.70;99.90;;;;;;5034091;28;20182;-59
2022/06/24 01:03:14;;;;;;;7.15;1.45;;;19.60;99.90;;;;;;5034377;28;20548;-59
2022/06/24 01:05:40;;;;;;;4.05;1.25;;;19.60;99.90;;;;;;5034463;28;20178;-59
2022/06/24 01:08:08;;;;;;;3.22;1.30;;;19.50;99.90;;;;;;5034445;28;20189;-59
2022/06/24 01:10:34;;;;;;;2.80;1.25;;;19.50;99.90;;;;;;5034779;28;20177;-59
2022/06/24 01:13:00;;;;;;;2.28;1.25;;;19.50;99.90;;;;;;5034466;28;20178;-59
2022/06/24 01:15:26;;;;;;;4.07;1.00;;;19.50;99.90;;;;;;5034564;28;20261;-59
2022/06/24 01:17:52;;;;;;;3.63;1.42;;;19.50;99.90;;;;;;5034197;28;20214;-59
2022/06/24 01:20:18;;;;;;;1.10;1.08;;;19.60;99.90;;;;;;5017731;28;20658;-59
2022/06/24 01:22:44;;;;;;;2.78;1.10;;;19.60;99.90;;;;;;5017615;28;20194;-59
2022/06/24 01:25:11;;;;;;;1.30;0.85;;;19.70;99.90;;;;;;5034121;28;20236;-59
2022/06/24 01:27:37;;;;;;;3.72;1.30;;;19.70;99.90;;;;;;5033726;28;20717;-59
2022/06/24 01:30:04;;;;;;;5.63;1.15;;;19.70;99.90;;;;;;5034121;28;20189;-59
2022/06/24 01:32:29;;;;;;;4.75;1.75;;;19.70;99.90;;;;;;5033772;28;20537;-59
2022/06/24 01:34:56;;;;;;;2.38;1.25;;;19.80;99.90;;;;;;5033174;28;20185;-59
2022/06/24 01:37:22;;;;;;;1.58;1.10;;;19.80;99.90;;;;;;5033631;28;20261;-60
2022/06/24 01:39:48;;;;;;;4.25;1.23;;;19.80;99.90;;;;;;5033627;28;20201;-59
2022/06/24 01:42:14;;;;;;;11.20;4.00;;;19.80;99.90;;;;;;5033894;28;20178;-59
2022/06/24 01:44:39;;;;;;;9.38;4.25;;;19.80;99.90;;;;;;5034046;28;20216;-59
2022/06/24 01:47:05;;;;;;;19.08;6.68;;;19.80;99.90;;;;;;5031464;28;20197;-59
2022/06/24 01:49:31;;;;;;;7.18;3.08;;;19.80;99.90;;;;;;5033458;28;20196;-59
2022/06/24 01:51:59;;;;;;;7.75;2.30;;;19.80;99.90;;;;;;5033589;28;20174;-60
2022/06/24 01:54:25;;;;;;;3.88;1.70;;;19.80;99.90;;;;;;5033123;28;20197;-59
2022/06/24 01:56:53;;;;;;;3.70;2.10;;;19.80;99.90;;;;;;5033317;28;20221;-59
2022/06/24 01:59:19;;;;;;;4.80;1.40;;;19.80;99.90;;;;;;5032756;28;20220;-59
2022/06/24 02:01:44;;;;;;;1.75;1.27;;;19.80;99.90;;;;;;5033287;28;20214;-59
2022/06/24 02:04:10;;;;;;;2.60;1.25;;;19.70;99.90;;;;;;5033294;28;20186;-59
2022/06/24 02:06:36;;;;;;;4.05;1.60;;;19.70;99.90;;;;;;5032995;28;20186;-59
2022/06/24 02:09:02;;;;;;;3.53;1.70;;;19.60;99.90;;;;;;5032807;28;20698;-59
2022/06/24 02:14:14;;;;;;;3.85;1.42;;;19.60;99.90;;;;;;5033359;28;20190;-59
2022/06/24 02:16:40;;;;;;;5.82;1.38;;;19.50;99.90;;;;;;5032781;28;20237;-59
2022/06/24 02:19:06;;;;;;;3.35;1.33;;;19.50;99.90;;;;;;5033031;28;20210;-59
2022/06/24 02:21:33;;;;;;;2.17;1.25;;;19.60;99.90;;;;;;5031532;28;20182;-59
2022/06/24 02:23:58;;;;;;;4.38;1.40;;;19.60;99.90;;;;;;5025659;28;20225;-59
2022/06/24 02:26:25;;;;;;;2.97;1.33;;;19.60;99.90;;;;;;5013399;28;20179;-59
2022/06/24 02:28:51;;;;;;;5.90;1.35;;;19.60;99.90;;;;;;5027680;28;20183;-59
2022/06/24 02:31:17;;;;;;;2.45;1.20;;;19.60;99.90;;;;;;5033149;28;20581;-59
2022/06/24 02:33:43;;;;;;;4.53;1.63;;;19.60;99.90;;;;;;5032880;28;20181;-59
2022/06/24 02:36:08;;;;;;;3.53;1.42;;;19.60;99.90;;;;;;5032971;28;20266;-59
2022/06/24 02:38:35;;;;;;;2.97;1.20;;;19.70;99.90;;;;;;5032886;28;20237;-59
2022/06/24 02:41:01;;;;;;;4.05;2.05;;;19.60;99.90;;;;;;5018810;28;20617;-59
2022/06/24 02:43:35;;;;;;;3.00;1.30;;;19.60;99.90;;;;;;5013206;28;20171;-59
2022/06/24 02:46:06;;;;;;;1.50;1.40;;;19.60;99.90;;;;;;5012756;28;20175;-59
2022/06/24 02:48:34;;;;;;;3.25;1.40;;;19.60;99.90;;;;;;5013006;28;20537;-59
2022/06/24 02:51:03;;;;;;;6.60;1.60;;;19.50;99.90;;;;;;5013153;28;20175;-59
2022/06/24 02:53:30;;;;;;;2.78;1.75;;;19.40;99.90;;;;;;5012926;28;20329;-59
2022/06/24 02:56:07;;;;;;;2.67;1.77;;;19.40;99.90;;;;;;5012925;28;20182;-59
2022/06/24 02:58:33;;;;;;;1.63;1.50;;;19.40;99.90;;;;;;5012870;28;20194;-59
2022/06/24 03:01:00;;;;;;;4.70;1.63;;;19.40;99.90;;;;;;5024115;28;20179;-60
2022/06/24 03:03:26;;;;;;;4.18;1.40;;;19.30;99.90;;;;;;5032400;28;20189;-59
2022/06/24 03:05:52;;;;;;;3.10;1.35;;;19.30;99.90;;;;;;5032476;28;20694;-59
2022/06/24 03:08:19;;;;;;;3.22;1.50;;;19.30;99.90;;;;;;5032468;28;20651;-59
2022/06/24 03:10:45;;;;;;;3.17;1.65;;;19.30;99.90;;;;;;5032476;28;20174;-59
2022/06/24 03:13:11;;;;;;;5.57;1.80;;;19.30;99.90;;;;;;5032369;28;20179;-59
2022/06/24 03:15:37;;;;;;;4.63;1.63;;;19.40;99.90;;;;;;5032229;28;20188;-59
2022/06/24 03:18:03;;;;;;;5.40;1.85;;;19.40;99.90;;;;;;5013642;28;20242;-59
2022/06/24 03:20:28;;;;;;;3.10;1.27;;;19.40;99.90;;;;;;5012416;28;20615;-60
2022/06/24 03:22:54;;;;;;;3.00;1.30;;;19.40;99.90;;;;;;5012500;28;20182;-59
2022/06/24 03:25:20;;;;;;;2.22;1.20;;;19.40;99.90;;;;;;5028453;28;20656;-60
2022/06/24 03:27:45;;;;;;;1.90;1.38;;;19.40;99.90;;;;;;5017234;28;20193;-59
2022/06/24 03:30:12;;;;;;;4.35;1.50;;;19.30;99.90;;;;;;5017528;28;20273;-59
2022/06/24 03:32:38;;;;;;;1.73;1.60;;;19.30;99.90;;;;;;5031717;28;20196;-60
2022/06/24 03:35:05;;;;;;;5.55;2.45;;;19.30;99.90;;;;;;5031494;28;20185;-59
2022/06/24 03:37:31;;;;;;;5.40;1.67;;;19.30;99.90;;;;;;5031046;28;20633;-60
2022/06/24 03:39:57;;;;;;;2.22;1.50;;;19.30;99.90;;;;;;5025062;28;20182;-59
2022/06/24 03:42:23;;;;;;;2.70;1.80;;;19.30;99.90;;;;;;5031345;28;20238;-59
2022/06/24 03:44:49;;;;;;;3.20;1.60;;;19.30;99.90;;;;;;5031697;28;20541;-60
2022/06/24 03:47:14;;;;;;;5.63;1.50;;;19.20;99.90;;;;;;5031676;28;20186;-59
2022/06/24 03:49:40;;;;;;;3.92;1.67;;;19.20;99.90;;;;;;5026804;28;20595;-59
2022/06/24 03:52:06;;;;;;;1.30;1.20;;;19.20;99.90;;;;;;5022531;28;20344;-59
2022/06/24 03:54:32;;;;;;;4.30;1.48;;;19.10;99.90;;;;;;5012001;28;20213;-59
2022/06/24 03:56:57;;;;;;;4.72;1.40;;;19.20;99.90;;;;;;5029018;28;20589;-59
2022/06/24 03:59:23;;;;;;;3.80;1.60;;;19.20;99.90;;;;;;5035773;28;20659;-58
2022/06/24 04:01:49;;;;;;;3.63;1.70;;;19.20;99.90;;;;;;5035791;28;20703;-59
2022/06/24 04:04:14;;;;;;;3.50;1.40;;;19.20;99.90;;;;;;5035597;28;20277;-59
2022/06/24 04:06:40;;;;;;;4.07;1.40;;;19.20;99.90;;;;;;5035101;28;20209;-59
2022/06/24 04:09:05;;;;;;;4.82;1.90;;;19.20;99.90;;;;;;5035587;28;20181;-59
2022/06/24 04:11:31;;;;;;;2.53;1.60;;;19.10;99.90;;;;;;5035597;28;20232;-59
2022/06/24 04:13:58;;;;;;;2.40;1.52;;;19.10;99.90;;;;;;5035863;28;20162;-59
2022/06/24 04:16:24;;;;;;;3.45;1.45;;;19.20;99.90;;;;;;5035315;28;20573;-59
2022/06/24 04:18:50;;;;;;;3.92;1.52;;;19.20;99.90;;;;;;5035515;28;20174;-59
2022/06/24 04:21:17;;;;;;;7.22;1.77;;;19.30;99.90;;;;;;5035560;28;20240;-59
2022/06/24 04:23:43;;;;;;;6.07;2.85;;;19.50;99.90;;;;;;5035378;28;20265;-59
2022/06/24 04:26:09;;;;;;;4.57;1.60;;;19.90;99.90;;;;;;5035410;28;20254;-61
2022/06/24 04:28:36;;;;;;;5.75;1.60;;;20.30;99.90;;;;;;5035267;28;20177;-61
2022/06/24 04:31:02;;;;;;;3.38;1.38;;;20.80;99.90;;;;;;5034866;28;20196;-61
2022/06/24 04:33:27;;;;;;;1.98;1.40;;;21.30;99.90;;;;;;5035193;28;20178;-61
2022/06/24 04:35:53;;;;;;;2.53;1.33;;;21.70;99.90;;;;;;5032583;28;20710;-62
2022/06/24 04:38:19;;;;;;;1.45;1.10;;;22.10;99.90;;;;;;5025909;28;20231;-62
2022/06/24 04:40:44;;;;;;;6.05;1.40;;;22.50;99.90;;;;;;5027815;28;20692;-63
2022/06/24 04:43:10;;;;;;;3.72;1.30;;;23.00;99.90;;;;;;5016761;28;20274;-62
2022/06/24 04:45:36;;;;;;;4.25;1.40;;;23.30;99.90;;;;;;4997485;28;20171;-60
2022/06/24 04:48:02;;;;;;;2.63;1.30;;;23.60;99.90;;;;;;5015263;28;20175;-61
2022/06/24 04:50:28;;;;;;;2.42;1.30;;;23.80;99.90;;;;;;5027430;28;20251;-60
2022/06/24 04:52:54;;;;;;;3.90;1.40;;;23.90;99.90;;;;;;5030249;28;20637;-58
2022/06/24 04:55:19;;;;;;;8.00;2.80;;;24.10;99.90;;;;;;5022844;28;20174;-59
2022/06/24 04:57:45;;;;;;;4.97;1.45;;;24.30;99.90;;;;;;5014869;28;20240;-59
2022/06/24 05:00:11;;;;;;;8.07;1.67;;;24.50;99.90;;;;;;5033215;28;20174;-60
2022/06/24 05:02:37;;;;;;;3.42;1.30;;;24.90;99.90;;;;;;5034504;28;20174;-60
2022/06/24 05:05:03;;;;;;;6.72;1.23;;;25.20;99.90;;;;;;5034744;28;20257;-59
2022/06/24 05:07:29;;;;;;;4.32;1.25;;;25.50;99.90;;;;;;5050822;28;20288;-60
2022/06/24 05:09:55;;;;;;;3.30;1.30;;;25.80;99.90;;;;;;5053439;28;20173;-60
2022/06/24 05:12:21;;;;;;;4.57;1.08;;;26.00;99.90;;;;;;5035983;28;20204;-60
2022/06/24 05:14:46;;;;;;;2.83;1.27;;;26.20;99.90;;;;;;5034426;28;20269;-60
2022/06/24 05:17:12;;;;;;;2.20;1.08;;;26.50;99.90;;;;;;5034275;28;20243;-60
2022/06/24 05:19:38;;;;;;;4.38;1.55;;;26.70;99.90;;;;;;5034329;28;20272;-59
2022/06/24 05:22:04;;;;;;;6.30;1.73;;;26.90;99.90;;;;;;5034295;28;20657;-60
2022/06/24 05:24:30;;;;;;;3.47;1.42;;;27.10;99.90;;;;;;5034095;28;20304;-60
2022/06/24 05:26:56;;;;;;;2.53;1.02;;;27.30;99.90;;;;;;5033542;28;20281;-60
2022/06/24 05:29:21;;;;;;;3.67;1.38;;;27.40;99.60;;;;;;5034019;28;20260;-62
2022/06/24 05:31:47;;;;;;;4.47;1.85;;;27.30;99.50;;;;;;5034374;28;20692;-61
2022/06/24 05:34:14;;;;;;;2.22;1.25;;;27.30;99.30;;;;;;5034273;28;20186;-59
2022/06/24 05:36:40;;;;;;;4.32;1.50;;;27.40;99.50;;;;;;5032427;28;20233;-58
2022/06/24 05:39:06;;;;;;;4.68;1.50;;;27.90;99.00;;;;;;5033565;28;20229;-59
2022/06/24 05:41:33;;;;;;;3.58;1.50;;;28.60;97.90;;;;;;5033558;28;20667;-59
2022/06/24 05:44:00;;;;;;;5.05;1.80;;;28.90;97.00;;;;;;5033581;28;20186;-60
2022/06/24 05:46:26;;;;;;;4.70;1.48;;;29.30;96.60;;;;;;5029910;28;20179;-57
2022/06/24 05:48:51;;;;;;;4.78;1.52;;;29.60;95.30;;;;;;5014099;28;20189;-60
2022/06/24 05:51:17;;;;;;;2.95;1.40;;;29.70;93.80;;;;;;5016776;28;20261;-61
2022/06/24 05:56:29;;;;;;;4.70;1.40;;;29.80;92.70;;;;;;5026320;28;20220;-62
2022/06/24 05:58:54;;;;;;;4.05;1.40;;;29.70;92.30;;;;;;5014662;28;20179;-61
2022/06/24 06:01:21;;;;;;;3.92;1.50;;;29.40;92.90;;;;;;5024608;28;20171;-61
2022/06/24 06:03:47;;;;;;;4.03;1.60;;;29.50;93.10;;;;;;5019237;28;20546;-61
2022/06/24 06:06:13;;;;;;;5.75;1.65;;;29.70;92.60;;;;;;5033512;28;20170;-63
2022/06/24 06:08:39;;;;;;;5.75;1.73;;;29.50;92.40;;;;;;5033482;28;20181;-62
2022/06/24 06:11:12;;;;;;;7.45;1.75;;;29.50;92.40;;;;;;5033383;28;20201;-63
2022/06/24 06:13:38;;;;;;;3.47;1.52;;;29.10;92.40;;;;;;5033293;28;20709;-63
2022/06/24 06:16:04;;;;;;;6.82;1.80;;;28.10;93.10;;;;;;5033135;28;20537;-62
2022/06/24 06:18:29;;;;;;;4.22;1.88;;;27.00;94.70;;;;;;5033140;28;20217;-62
2022/06/24 06:21:06;;;;;;;4.50;1.80;;;26.10;97.20;;;;;;5032937;28;20186;-62
2022/06/24 06:23:31;;;;;;;4.63;2.00;;;25.20;99.10;;;;;;5031978;28;20178;-62
2022/06/24 06:26:01;;;;;;;5.63;1.90;;;24.50;99.90;;;;;;5033339;28;20216;-62
2022/06/24 06:28:27;;;;;;;4.50;1.45;;;24.00;99.90;;;;;;5033003;28;20540;-62
2022/06/24 06:30:53;;;;;;;3.50;1.77;;;23.40;99.90;;;;;;5033234;28;20174;-62
2022/06/24 06:33:19;;;;;;;4.35;1.70;;;23.00;99.90;;;;;;5033233;28;20581;-62
2022/06/24 06:35:44;;;;;;;3.42;1.80;;;22.70;99.90;;;;;;5032914;28;20630;-62
2022/06/24 06:38:10;;;;;;;4.20;2.10;;;22.40;99.90;;;;;;5032801;28;20272;-62
2022/06/24 06:40:37;;;;;;;9.85;2.22;;;22.10;99.90;;;;;;5032938;28;20252;-62
2022/06/24 06:43:06;;;;;;;2.97;1.98;;;21.80;99.90;;;;;;5032791;28;20540;-62
2022/06/24 06:45:37;;;;;;;4.47;2.03;;;21.70;99.90;;;;;;5032830;28;20229;-62
2022/06/24 06:48:04;;;;;;;6.07;2.08;;;21.50;99.90;;;;;;5032521;28;20215;-62
2022/06/24 06:50:29;;;;;;;6.07;2.30;;;21.50;99.90;;;;;;5032857;28;20176;-63
2022/06/24 06:52:55;;;;;;;4.47;2.13;;;21.50;99.90;;;;;;5015143;28;20186;-62
2022/06/24 06:55:21;;;;;;;4.05;2.05;;;21.60;99.90;;;;;;5032691;28;20174;-63
2022/06/24 06:57:47;;;;;;;6.18;2.40;;;21.70;99.90;;;;;;5032543;28;20221;-63
2022/06/24 07:00:14;;;;;;;4.65;1.90;;;22.20;99.90;;;;;;5032696;28;20177;-63
2022/06/24 07:02:40;;;;;;;4.00;2.22;;;23.30;99.90;;;;;;5032482;28;20185;-62
2022/06/24 07:05:06;;;;;;;3.60;2.30;;;24.40;99.90;;;;;;5032450;28;20733;-62
2022/06/24 07:07:32;;;;;;;4.22;1.80;;;24.90;99.90;;;;;;5032469;28;20181;-62
2022/06/24 07:09:58;;;;;;;4.07;1.98;;;25.10;99.90;;;;;;5032557;28;20272;-62
2022/06/24 07:12:24;;;;;;;3.58;1.80;;;25.10;99.90;;;;;;5032201;28;20182;-62
2022/06/24 07:14:50;;;;;;;6.15;2.20;;;24.90;99.90;;;;;;5032604;28;20182;-62
2022/06/24 07:17:17;;;;;;;4.40;2.15;;;24.50;99.90;;;;;;5014630;28;20546;-62
2022/06/24 07:19:43;;;;;;;5.18;2.03;;;24.10;99.90;;;;;;5032234;28;20550;-61
2022/06/24 07:22:09;;;;;;;6.45;1.90;;;24.00;99.90;;;;;;5032401;28;20526;-61
2022/06/24 07:24:35;;;;;;;7.50;2.03;;;24.10;99.90;;;;;;5032173;28;20174;-61
2022/06/24 07:27:06;;;;;;;6.63;2.17;;;24.50;99.90;;;;;;5014590;28;20503;-62
2022/06/24 07:29:33;;;;;;;6.07;1.48;;;25.30;99.90;;;;;;5032164;28;20183;-62
2022/06/24 07:32:00;;;;;;;5.22;1.60;;;26.20;99.90;;;;;;5031402;28;20637;-62
2022/06/24 07:34:30;;;;;;;4.13;1.67;;;26.90;99.90;;;;;;5032029;28;20178;-62
2022/06/24 07:36:59;;;;;;;4.22;1.70;;;27.60;99.90;;;;;;5032205;28;20214;-62
2022/06/24 07:39:24;;;;;;;9.27;1.90;;;27.00;98.00;;;;;;5014116;28;20564;-62
2022/06/24 07:41:50;;;;;;;3.15;1.65;;;26.50;99.20;;;;;;5014517;28;20192;-62
2022/06/24 07:44:16;;;;;;;3.25;2.00;;;26.30;99.70;;;;;;5032127;28;20178;-61
2022/06/24 07:46:42;;;;;;;1.83;1.23;;;26.50;99.70;;;;;;5031884;28;20177;-61
2022/06/24 07:49:08;;;;;;;5.45;1.70;;;26.30;98.80;;;;;;5032070;28;20170;-62
2022/06/24 07:51:33;;;;;;;5.50;1.73;;;26.10;99.30;;;;;;5031885;28;20170;-62
2022/06/24 07:53:59;;;;;;;4.00;1.67;;;25.90;99.90;;;;;;5014317;28;20178;-61
2022/06/24 07:59:08;;;;;;;4.78;2.08;;;25.80;99.90;;;;;;5031980;28;20252;-62
2022/06/24 08:01:34;;;;;;;3.80;2.00;;;26.10;99.90;;;;;;5031830;28;20656;-61
2022/06/24 08:04:00;;;;;;;3.65;1.73;;;26.10;99.90;;;;;;5031871;28;20210;-61
2022/06/24 08:06:26;;;;;;;6.63;1.80;;;26.20;99.90;;;;;;5031616;28;20179;-62
2022/06/24 08:08:52;;;;;;;3.97;1.70;;;26.20;99.90;;;;;;5031852;28;20182;-61
2022/06/24 08:11:17;;;;;;;2.25;1.50;;;26.00;99.40;;;;;;5031799;28;20228;-61
2022/06/24 08:13:43;;;;;;;4.47;1.77;;;26.00;98.50;;;;;;5031667;28;20202;-62
2022/06/24 08:16:08;;;;;;;3.53;1.60;;;25.80;98.70;;;;;;5031760;28;20170;-61
2022/06/24 08:18:34;;;;;;;6.50;2.13;;;25.70;99.30;;;;;;5031513;28;20750;-62
2022/06/24 08:21:00;;;;;;;4.50;2.08;;;25.70;99.10;;;;;;5031662;28;20186;-61
2022/06/24 08:23:25;;;;;;;3.55;1.67;;;25.90;99.30;;;;;;5031509;28;20182;-61
2022/06/24 08:25:51;;;;;;;4.60;1.73;;;26.50;98.50;;;;;;5031568;28;20182;-62
2022/06/24 08:28:17;;;;;;;4.35;1.88;;;26.90;98.20;;;;;;5031762;28;20174;-62
2022/06/24 08:30:43;;;;;;;4.18;1.80;;;27.50;98.30;;;;;;5031519;28;20185;-62
2022/06/24 08:33:08;;;;;;;2.53;1.77;;;28.00;97.20;;;;;;5031629;28;20178;-62
2022/06/24 08:35:34;;;;;;;4.43;1.70;;;28.30;96.00;;;;;;5031518;28;20178;-62
2022/06/24 08:37:59;;;;;;;3.92;1.85;;;28.10;95.10;;;;;;5031295;28;20589;-62
2022/06/24 08:40:27;;;;;;;1.90;1.70;;;27.80;95.10;;;;;;5031304;28;20261;-62
2022/06/24 08:42:55;;;;;;;4.75;1.70;;;27.60;95.80;;;;;;5032717;28;20189;-63
2022/06/24 08:45:22;;;;;;;2.45;1.50;;;27.80;96.70;;;;;;5035143;28;20171;-63
2022/06/24 08:47:49;;;;;;;5.22;1.70;;;28.00;95.00;;;;;;5035127;28;20201;-63
2022/06/24 08:50:16;;;;;;;2.03;1.58;;;28.40;94.40;;;;;;5035212;28;20220;-63
2022/06/24 08:52:54;;;;;;;3.75;1.50;;;28.70;93.60;;;;;;5034990;28;20190;-62
2022/06/24 08:55:20;;;;;;;4.47;1.50;;;29.10;93.20;;;;;;5035033;28;20177;-63
2022/06/24 08:57:46;;;;;;;2.65;1.50;;;29.20;92.40;;;;;;5034897;28;20669;-63
2022/06/24 09:00:13;;;;;;;2.63;1.55;;;29.00;91.40;;;;;;5034943;28;20206;-63
2022/06/24 09:02:39;;;;;;;3.03;1.45;;;29.00;92.30;;;;;;5034799;28;20248;-63
2022/06/24 09:05:12;;;;;;;1.83;1.02;;;29.20;91.50;;;;;;5034625;28;20170;-63
2022/06/24 09:07:38;;;;;;;2.67;1.20;;;29.60;91.20;;;;;;5034777;28;20683;-63
2022/06/24 09:10:09;;;;;;;2.63;1.52;;;29.80;90.10;;;;;;5034730;28;20178;-62
2022/06/24 09:12:46;;;;;;;4.47;1.65;;;29.70;88.70;;;;;;5034661;28;20269;-62
2022/06/24 09:15:13;;;;;;;4.35;1.38;;;29.60;83.90;;;;;;5034719;28;20224;-63
2022/06/24 09:17:40;;;;;;;2.10;1.08;;;29.20;86.20;;;;;;5034572;28;20249;-62
2022/06/24 09:20:21;;;;;;;2.15;1.10;;;29.10;83.70;;;;;;5034533;28;20189;-63
2022/06/24 09:22:47;;;;;;;2.65;1.05;;;29.50;85.60;;;;;;5034701;28;20182;-63
2022/06/24 09:25:12;;;;;;;2.83;1.10;;;30.10;83.30;;;;;;5034468;28;20177;-63
2022/06/24 09:27:47;;;;;;;2.85;1.17;;;30.80;78.70;;;;;;5034400;28;20202;-63
2022/06/24 09:30:15;;;;;;;2.88;1.00;;;31.00;75.50;;;;;;5034325;28;20174;-62
2022/06/24 09:32:55;;;;;;;4.20;1.40;;;31.20;74.30;;;;;;5034294;28;20236;-62
2022/06/24 09:35:24;;;;;;;2.60;1.23;;;31.50;74.70;;;;;;5034374;28;20190;-63
2022/06/24 09:37:50;;;;;;;1.98;1.33;;;31.80;76.30;;;;;;5034075;28;20230;-63
2022/06/24 09:40:31;;;;;;;1.58;1.17;;;32.00;73.40;;;;;;5034285;28;20174;-63
2022/06/24 09:43:07;;;;;;;4.28;1.33;;;32.00;74.80;;;;;;5034283;28;20174;-63
2022/06/24 09:45:50;;;;;;;3.10;0.95;;;32.00;73.70;;;;;;5034089;28;20181;-63
2022/06/24 09:48:33;;;;;;;1.35;1.10;;;32.30;69.70;;;;;;5034122;28;20182;-63
2022/06/24 09:51:04;;;;;;;2.85;1.45;;;31.90;70.40;;;;;;5034053;28;20190;-63
2022/06/24 09:53:32;;;;;;;4.22;1.23;;;31.80;70.30;;;;;;5033884;28;20751;-63
2022/06/24 09:55:59;;;;;;;1.80;1.25;;;31.80;70.10;;;;;;5033212;28;20525;-63
2022/06/24 09:58:25;;;;;;;1.42;1.23;;;32.00;67.30;;;;;;5033697;28;20216;-63
2022/06/24 10:00:51;;;;;;;1.27;1.15;;;31.70;68.40;;;;;;5033922;28;20232;-63
2022/06/24 10:03:17;;;;;;;2.60;1.40;;;31.40;68.50;;;;;;5033850;28;20644;-63
2022/06/24 10:05:51;;;;;;;2.45;1.33;;;31.70;70.60;;;;;;5033651;28;20908;-63
2022/06/24 10:08:19;;;;;;;2.80;1.20;;;31.80;68.20;;;;;;5033730;28;20170;-63
2022/06/24 10:10:53;;;;;;;1.77;1.30;;;31.30;68.10;;;;;;5033523;28;20181;-63
2022/06/24 10:13:32;;;;;;;2.35;1.10;;;31.20;69.30;;;;;;5033639;28;20660;-63
2022/06/24 10:16:06;;;;;;;1.50;1.40;;;30.80;70.20;;;;;;5033548;28;20633;-63
2022/06/24 10:18:39;;;;;;;3.20;1.30;;;30.70;70.80;;;;;;5033430;28;20208;-63
2022/06/24 10:21:07;;;;;;;4.53;1.40;;;30.80;71.80;;;;;;5033372;28;20183;-63
2022/06/24 10:23:44;;;;;;;1.85;1.20;;;30.50;69.10;;;;;;5015638;28;20209;-62
2022/06/24 10:26:14;;;;;;;1.42;1.10;;;30.40;71.80;;;;;;5033407;28;20185;-62
2022/06/24 10:29:04;;;;;;;2.75;1.50;;;29.80;70.90;;;;;;5033204;28;20699;-63
2022/06/24 10:31:42;;;;;;;3.47;1.52;;;29.00;74.30;;;;;;5033226;28;20188;-63
2022/06/24 10:34:08;;;;;;;2.38;1.40;;;29.10;77.40;;;;;;5033217;28;20181;-63
2022/06/24 10:36:34;;;;;;;2.00;1.25;;;29.60;74.50;;;;;;5033014;28;20170;-63
2022/06/24 10:39:20;;;;;;;2.35;1.20;;;29.90;74.80;;;;;;5032930;28;20217;-63
2022/06/24 10:41:46;;;;;;;1.25;1.20;;;30.10;73.60;;;;;;5032969;28;20300;-63
2022/06/24 10:44:27;;;;;;;1.75;1.10;;;29.90;73.40;;;;;;5032994;28;20671;-63
2022/06/24 10:47:05;;;;;;;1.38;1.27;;;29.80;74.00;;;;;;5033080;28;20201;-63
2022/06/24 10:49:55;;;;;;;3.42;1.50;;;29.80;73.40;;;;;;5032887;28;20182;-63
2022/06/24 10:52:51;;;;;;;3.05;1.35;;;29.70;72.40;;;;;;5032936;28;20174;-63
2022/06/24 10:55:17;;;;;;;2.78;1.40;;;29.30;74.40;;;;;;5032785;28;20629;-63
2022/06/24 10:57:48;;;;;;;1.95;1.27;;;29.40;76.60;;;;;;5032475;28;20205;-64
2022/06/24 11:00:16;;;;;;;2.33;1.50;;;29.80;75.00;;;;;;5032766;28;20182;-64
2022/06/24 11:02:47;;;;;;;3.63;1.40;;;30.20;75.50;;;;;;5032387;28;20178;-64
2022/06/24 11:05:21;;;;;;;2.45;1.85;;;30.30;73.20;;;;;;5032732;28;20288;-63
2022/06/24 11:07:51;;;;;;;3.33;1.45;;;30.20;73.70;;;;;;5032612;28;20169;-63
2022/06/24 11:10:21;;;;;;;7.53;1.98;;;30.40;72.80;;;;;;5032647;28;20186;-63
2022/06/24 11:12:49;;;;;;;2.10;1.30;;;30.70;73.90;;;;;;5032466;28;20178;-63
2022/06/24 11:15:14;;;;;;;2.08;1.38;;;30.80;71.20;;;;;;5032458;28;20205;-63
2022/06/24 11:17:42;;;;;;;1.02;1.02;;;31.00;67.90;;;;;;5014697;28;20675;-63
2022/06/24 11:20:09;;;;;;;1.95;1.13;;;30.60;67.50;;;;;;5032434;28;20541;-62
2022/06/24 11:22:42;;;;;;;2.67;1.20;;;30.30;66.40;;;;;;5014703;28;20236;-63
2022/06/24 11:25:10;;;;;;;2.33;1.00;;;29.80;67.10;;;;;;5032303;28;20640;-62
2022/06/24 11:27:37;;;;;;;3.17;1.10;;;29.20;69.90;;;;;;5032135;28;20186;-63
2022/06/24 11:30:03;;;;;;;2.25;1.40;;;29.10;69.20;;;;;;5031960;28;20181;-63
2022/06/24 11:32:29;;;;;;;2.25;1.30;;;29.40;70.10;;;;;;5031970;28;20236;-62
2022/06/24 11:34:55;;;;;;;2.00;1.17;;;29.80;70.50;;;;;;5032289;28;20174;-61
2022/06/24 11:37:24;;;;;;;1.85;1.17;;;30.20;69.40;;;;;;5031917;28;20258;-62
2022/06/24 11:39:54;;;;;;;3.20;1.20;;;30.70;68.40;;;;;;5032290;28;20239;-62
2022/06/24 11:42:21;;;;;;;1.38;0.95;;;31.30;65.80;;;;;;5032213;28;20173;-62
2022/06/24 11:44:50;;;;;;;1.50;1.00;;;31.60;66.70;;;;;;5032015;28;20586;-62
2022/06/24 11:47:15;;;;;;;1.20;1.08;;;31.90;64.30;;;;;;5032009;28;20178;-62
2022/06/24 11:49:44;;;;;;;1.00;1.00;;;31.70;61.90;;;;;;5031901;28;20542;-62
2022/06/24 11:52:10;;;;;;;1.60;1.40;;;31.10;63.70;;;;;;5032124;28;20182;-62
2022/06/24 11:54:36;;;;;;;1.42;1.30;;;31.00;64.10;;;;;;5031960;28;20177;-62
2022/06/24 11:57:06;;;;;;;1.60;1.20;;;31.10;64.90;;;;;;5031818;28;20232;-62
2022/06/24 11:59:31;;;;;;;1.35;1.20;;;31.10;63.40;;;;;;5031783;28;20181;-62
2022/06/24 12:01:57;;;;;;;3.28;1.10;;;31.10;63.90;;;;;;5031885;28;20173;-62
2022/06/24 12:04:25;;;;;;;1.13;1.10;;;31.00;63.90;;;;;;5031812;28;20209;-62
2022/06/24 12:06:50;;;;;;;2.22;1.40;;;31.10;64.50;;;;;;5031994;28;20182;-62
2022/06/24 12:09:17;;;;;;;2.42;1.38;;;31.20;63.30;;;;;;5031835;28;20582;-62
2022/06/24 12:11:44;;;;;;;1.33;1.15;;;31.10;62.00;;;;;;5031583;28;20182;-62
2022/06/24 12:14:11;;;;;;;3.70;1.80;;;31.10;61.10;;;;;;5031859;28;20177;-62
2022/06/24 12:17:07;;;;;;;1.63;1.08;;;31.00;62.30;;;;;;5031632;28;20550;-62
2022/06/24 12:19:35;;;;;;;2.50;1.33;;;30.60;62.30;;;;;;5018200;28;20550;-62
2022/06/24 12:22:17;;;;;;;1.40;1.30;;;30.70;63.70;;;;;;5035828;28;20174;-61
2022/06/24 12:24:42;;;;;;;1.25;1.05;;;30.70;64.10;;;;;;5035456;28;20182;-62
2022/06/24 12:27:09;;;;;;;1.50;1.40;;;31.20;63.40;;;;;;5035692;28;20196;-61
2022/06/24 12:29:37;;;;;;;1.23;1.08;;;31.70;61.30;;;;;;5035468;28;20535;-62
2022/06/24 12:32:05;;;;;;;1.23;1.13;;;32.00;61.00;;;;;;5035361;28;20562;-61
2022/06/24 12:34:41;;;;;;;1.20;1.10;;;32.10;60.50;;;;;;5035458;28;20185;-61
2022/06/24 12:37:11;;;;;;;3.75;1.73;;;32.30;58.90;;;;;;5035373;28;20198;-61
2022/06/24 12:39:47;;;;;;;1.33;1.13;;;32.40;59.20;;;;;;5035140;28;20236;-61
2022/06/24 12:42:17;;;;;;;1.00;0.90;;;32.20;58.20;;;;;;5035383;28;20162;-62
2022/06/24 12:44:52;;;;;;;3.17;1.30;;;31.90;59.30;;;;;;5035120;28;20284;-62
2022/06/24 12:52:57;;;;;;;3.22;1.60;;;31.50;59.90;;;;;;5035539;28;20304;-62
2022/06/24 12:55:22;;;;;;;2.50;1.83;;;31.30;59.70;;;;;;5035030;28;20621;-61
2022/06/24 12:57:48;;;;;;;1.85;1.17;;;31.30;59.90;;;;;;5017378;28;20267;-62
2022/06/24 13:00:16;;;;;;;2.70;1.13;;;31.10;60.70;;;;;;5035058;28;20204;-62
2022/06/24 13:02:46;;;;;;;2.28;1.20;;;30.60;61.00;;;;;;5034986;28;20206;-62
2022/06/24 13:05:11;;;;;;;1.48;1.10;;;30.30;62.00;;;;;;5034878;28;20698;-62